Time;durP1;ratioP1;P1;durP2;ratioP2;P2;SDS_P1;SDS_P2;PMS_P1;PMS_P2;Temp;Humidity;BMP_temperature;BMP_pressure;BME280_temperature;BME280_humidity;BME280_pressure;Samples;Min_cycle;Max_cycle;Signal;HPM_P1;HPM_P2
2023/08/01 00:00:08;;;;;;;14.48;5.55;;;;;;;;;;5063718;28;20037;-58
2023/08/01 00:02:34;;;;;;;24.30;6.15;;;;;;;;;;5061466;28;20048;-58
2023/08/01 00:05:00;;;;;;;12.40;4.85;;;;;;;;;;5067493;28;20182;-58
2023/08/01 00:07:27;;;;;;;15.15;5.20;;;;;;;;;;5058594;28;20109;-58
2023/08/01 00:09:54;;;;;;;11.82;4.72;;;;;;;;;;5054545;28;20399;-58
2023/08/01 00:12:20;;;;;;;18.70;5.22;;;;;;;;;;5062575;28;20045;-58
2023/08/01 00:14:46;;;;;;;18.52;4.88;;;;;;;;;;5065309;28;20215;-58
2023/08/01 00:17:12;;;;;;;15.05;4.10;;;;;;;;;;5057993;28;20181;-58
2023/08/01 00:19:38;;;;;;;12.18;3.72;;;;;;;;;;5053443;28;20064;-58
2023/08/01 00:22:05;;;;;;;15.60;3.70;;;;;;;;;;5060033;28;20489;-58
2023/08/01 00:24:31;;;;;;;13.65;4.05;;;;;;;;;;5054143;28;20039;-58
2023/08/01 00:26:57;;;;;;;16.45;4.05;;;;;;;;;;5059713;28;20490;-58
2023/08/01 00:29:23;;;;;;;10.40;3.60;;;;;;;;;;5053903;28;20143;-58
2023/08/01 00:31:49;;;;;;;13.50;3.55;;;;;;;;;;5059621;28;20040;-58
2023/08/01 00:34:16;;;;;;;15.57;3.85;;;;;;;;;;5061525;28;20392;-58
2023/08/01 00:36:42;;;;;;;24.40;4.47;;;;;;;;;;5058029;28;20253;-58
2023/08/01 00:39:09;;;;;;;15.23;3.50;;;;;;;;;;5067591;28;20218;-58
2023/08/01 00:41:35;;;;;;;12.00;3.30;;;;;;;;;;5065860;28;20049;-58
2023/08/01 00:44:01;;;;;;;14.68;3.75;;;;;;;;;;5057450;28;20388;-58
2023/08/01 00:46:28;;;;;;;10.32;3.50;;;;;;;;;;5055887;28;20086;-58
2023/08/01 00:48:57;;;;;;;7.07;3.22;;;;;;;;;;5056858;28;20033;-59
2023/08/01 00:51:24;;;;;;;15.35;3.35;;;;;;;;;;5060732;28;20067;-58
2023/08/01 00:53:51;;;;;;;13.02;3.20;;;;;;;;;;5056231;28;20052;-58
2023/08/01 00:56:18;;;;;;;11.23;3.15;;;;;;;;;;5067228;28;20041;-58
2023/08/01 00:58:44;;;;;;;9.98;3.08;;;;;;;;;;5056712;28;20033;-58
2023/08/01 01:01:10;;;;;;;12.90;4.03;;;;;;;;;;5060333;28;20186;-58
2023/08/01 01:03:37;;;;;;;9.48;3.75;;;;;;;;;;5057664;28;20064;-58
2023/08/01 01:06:12;;;;;;;12.98;3.50;;;;;;;;;;5058198;28;20041;-58
2023/08/01 01:08:38;;;;;;;11.80;4.18;;;;;;;;;;5065870;28;20127;-58
2023/08/01 01:11:04;;;;;;;17.38;3.97;;;;;;;;;;5062616;28;20114;-58
2023/08/01 01:13:30;;;;;;;12.20;3.35;;;;;;;;;;5065447;28;20045;-58
2023/08/01 01:15:57;;;;;;;11.75;4.38;;;;;;;;;;5074494;28;20069;-58
2023/08/01 01:18:23;;;;;;;10.73;3.38;;;;;;;;;;5071893;28;20091;-58
2023/08/01 01:20:49;;;;;;;14.25;4.13;;;;;;;;;;5065701;28;20140;-58
2023/08/01 01:23:16;;;;;;;9.57;3.53;;;;;;;;;;5060201;28;20091;-58
2023/08/01 01:25:42;;;;;;;11.38;3.00;;;;;;;;;;5066035;28;20468;-58
2023/08/01 01:28:09;;;;;;;9.18;3.47;;;;;;;;;;5070176;28;20048;-58
2023/08/01 01:30:35;;;;;;;8.45;3.55;;;;;;;;;;5064203;28;20056;-58
2023/08/01 01:33:01;;;;;;;12.15;3.20;;;;;;;;;;5061419;28;20540;-58
2023/08/01 01:35:27;;;;;;;7.78;3.38;;;;;;;;;;5058127;28;20377;-58
2023/08/01 01:37:54;;;;;;;10.20;3.10;;;;;;;;;;5056127;28;20089;-58
2023/08/01 01:40:20;;;;;;;8.88;3.45;;;;;;;;;;5076766;28;20051;-58
2023/08/01 01:42:46;;;;;;;8.32;3.50;;;;;;;;;;5075816;28;20507;-57
2023/08/01 01:45:12;;;;;;;11.82;3.92;;;;;;;;;;5067917;28;20072;-58
2023/08/01 01:47:38;;;;;;;10.23;4.00;;;;;;;;;;5080405;28;20052;-58
2023/08/01 01:50:05;;;;;;;14.98;3.85;;;;;;;;;;5086077;28;20074;-58
2023/08/01 01:52:32;;;;;;;13.60;3.95;;;;;;;;;;5065477;28;20047;-58
2023/08/01 01:54:59;;;;;;;13.13;4.40;;;;;;;;;;5061894;28;20113;-58
2023/08/01 01:57:25;;;;;;;12.52;4.63;;;;;;;;;;5066478;28;20490;-58
2023/08/01 01:59:51;;;;;;;9.55;4.10;;;;;;;;;;5064889;28;20492;-57
2023/08/01 02:02:17;;;;;;;9.07;4.22;;;;;;;;;;5058924;28;20049;-58
2023/08/01 02:04:43;;;;;;;8.52;3.92;;;;;;;;;;5061967;28;20451;-58
2023/08/01 02:07:10;;;;;;;12.07;4.18;;;;;;;;;;5068351;28;20041;-58
2023/08/01 02:09:36;;;;;;;9.57;4.65;;;;;;;;;;5061922;28;20036;-58
2023/08/01 02:12:04;;;;;;;10.18;4.15;;;;;;;;;;5058919;28;20119;-58
2023/08/01 02:14:30;;;;;;;17.33;5.13;;;;;;;;;;5058758;28;20175;-58
2023/08/01 02:16:56;;;;;;;8.50;4.65;;;;;;;;;;5059916;28;20041;-58
2023/08/01 02:19:23;;;;;;;13.40;5.45;;;;;;;;;;5059694;28;20484;-58
2023/08/01 02:21:49;;;;;;;14.73;5.30;;;;;;;;;;5063932;28;20408;-57
2023/08/01 02:24:15;;;;;;;13.98;6.32;;;;;;;;;;5068063;28;20051;-58
2023/08/01 02:26:41;;;;;;;17.83;6.47;;;;;;;;;;5056013;28;20146;-58
2023/08/01 02:29:07;;;;;;;19.23;6.13;;;;;;;;;;5060703;28;20064;-58
2023/08/01 02:31:35;;;;;;;22.27;7.78;;;;;;;;;;5067262;28;20052;-58
2023/08/01 02:34:01;;;;;;;13.63;6.57;;;;;;;;;;5059196;28;20101;-58
2023/08/01 02:36:27;;;;;;;20.88;6.72;;;;;;;;;;5060951;28;20480;-58
2023/08/01 02:38:54;;;;;;;17.95;7.20;;;;;;;;;;5068861;28;20084;-58
2023/08/01 02:41:20;;;;;;;18.92;6.80;;;;;;;;;;5056961;28;20040;-58
2023/08/01 02:43:46;;;;;;;13.70;6.28;;;;;;;;;;5063340;28;20076;-58
2023/08/01 02:46:12;;;;;;;15.88;6.45;;;;;;;;;;5068363;28;20073;-58
2023/08/01 02:48:38;;;;;;;17.88;6.28;;;;;;;;;;5055707;28;20128;-58
2023/08/01 02:51:05;;;;;;;13.68;5.60;;;;;;;;;;5066971;28;20247;-58
2023/08/01 02:53:31;;;;;;;14.82;5.18;;;;;;;;;;5055978;28;20109;-58
2023/08/01 02:55:57;;;;;;;12.15;3.95;;;;;;;;;;5059792;28;20143;-58
2023/08/01 02:58:23;;;;;;;14.45;4.95;;;;;;;;;;5061938;28;20122;-58
2023/08/01 03:00:50;;;;;;;9.68;3.92;;;;;;;;;;5067504;28;20047;-58
2023/08/01 03:03:16;;;;;;;11.05;4.20;;;;;;;;;;5057958;28;20435;-58
2023/08/01 03:05:42;;;;;;;14.63;3.70;;;;;;;;;;5066895;28;20044;-58
2023/08/01 03:08:08;;;;;;;15.75;3.83;;;;;;;;;;5071698;28;20083;-57
2023/08/01 03:10:34;;;;;;;11.65;2.88;;;;;;;;;;5058814;28;20041;-57
2023/08/01 03:13:01;;;;;;;20.08;3.05;;;;;;;;;;5055088;28;20048;-57
2023/08/01 03:15:27;;;;;;;11.55;2.83;;;;;;;;;;5059642;28;20078;-57
2023/08/01 03:17:53;;;;;;;15.27;2.72;;;;;;;;;;5063672;28;20048;-58
2023/08/01 03:20:20;;;;;;;6.57;2.10;;;;;;;;;;5055411;28;20507;-58
2023/08/01 03:22:46;;;;;;;13.32;2.13;;;;;;;;;;5053022;28;20072;-58
2023/08/01 03:25:13;;;;;;;14.15;2.40;;;;;;;;;;5060438;28;20072;-58
2023/08/01 03:27:39;;;;;;;14.30;2.45;;;;;;;;;;5058376;28;20076;-58
2023/08/01 03:30:08;;;;;;;10.98;1.80;;;;;;;;;;5054778;28;20048;-58
2023/08/01 03:32:36;;;;;;;13.57;2.28;;;;;;;;;;5056228;28;20062;-58
2023/08/01 03:35:04;;;;;;;8.68;2.15;;;;;;;;;;5059551;28;20044;-58
2023/08/01 03:37:30;;;;;;;8.00;1.92;;;;;;;;;;5054024;28;20587;-58
2023/08/01 03:39:56;;;;;;;7.57;2.08;;;;;;;;;;5059137;28;20131;-58
2023/08/01 03:42:22;;;;;;;8.00;2.30;;;;;;;;;;5055550;28;20048;-58
2023/08/01 03:44:48;;;;;;;12.30;2.17;;;;;;;;;;5057894;28;20032;-59
2023/08/01 03:47:15;;;;;;;13.18;2.35;;;;;;;;;;5059491;28;20080;-58
2023/08/01 03:49:41;;;;;;;15.40;2.70;;;;;;;;;;5068441;28;20044;-58
2023/08/01 03:52:07;;;;;;;10.70;2.08;;;;;;;;;;5056093;28;20470;-58
2023/08/01 03:54:33;;;;;;;8.15;2.10;;;;;;;;;;5067999;28;20048;-58
2023/08/01 03:57:00;;;;;;;7.25;2.33;;;;;;;;;;5056787;28;20047;-58
2023/08/01 03:59:26;;;;;;;9.57;2.22;;;;;;;;;;5062578;28;20081;-57
2023/08/01 04:01:52;;;;;;;12.20;2.55;;;;;;;;;;5054742;28;20168;-58
2023/08/01 04:04:20;;;;;;;8.20;1.90;;;;;;;;;;5057311;28;20337;-58
2023/08/01 04:06:46;;;;;;;8.80;1.90;;;;;;;;;;5063064;28;20062;-58
2023/08/01 04:09:12;;;;;;;15.73;2.25;;;;;;;;;;5054675;28;20113;-58
2023/08/01 04:11:38;;;;;;;8.25;2.00;;;;;;;;;;5061571;28;20110;-58
2023/08/01 04:14:04;;;;;;;11.43;1.92;;;;;;;;;;5058609;28;20452;-58
2023/08/01 04:16:31;;;;;;;9.23;2.05;;;;;;;;;;5060241;28;20048;-58
2023/08/01 04:18:57;;;;;;;12.18;2.60;;;;;;;;;;5066945;28;20048;-58
2023/08/01 04:21:23;;;;;;;8.18;2.20;;;;;;;;;;5066968;28;20048;-58
2023/08/01 04:23:49;;;;;;;12.13;2.90;;;;;;;;;;5069925;28;20399;-58
2023/08/01 04:26:15;;;;;;;8.77;1.95;;;;;;;;;;5068080;28;20048;-58
2023/08/01 04:28:42;;;;;;;21.77;3.40;;;;;;;;;;5060984;28;20037;-58
2023/08/01 04:31:08;;;;;;;13.77;2.42;;;;;;;;;;5055388;28;20152;-58
2023/08/01 04:33:34;;;;;;;12.82;2.28;;;;;;;;;;5054116;28;20052;-58
2023/08/01 04:36:01;;;;;;;10.27;2.55;;;;;;;;;;5062557;28;20083;-58
2023/08/01 04:38:27;;;;;;;9.10;2.35;;;;;;;;;;5056246;28;20044;-58
2023/08/01 04:40:54;;;;;;;14.60;2.72;;;;;;;;;;5050531;28;20045;-58
2023/08/01 04:43:20;;;;;;;12.48;2.47;;;;;;;;;;5053501;28;20080;-58
2023/08/01 04:45:46;;;;;;;8.23;2.60;;;;;;;;;;5056845;28;20055;-58
2023/08/01 04:48:12;;;;;;;13.00;2.47;;;;;;;;;;5059606;28;20059;-58
2023/08/01 04:50:38;;;;;;;17.33;3.85;;;;;;;;;;5061689;28;20078;-58
2023/08/01 04:53:06;;;;;;;12.00;3.55;;;;;;;;;;5054682;28;20056;-58
2023/08/01 04:55:32;;;;;;;13.00;4.03;;;;;;;;;;5056093;28;20063;-59
2023/08/01 04:57:58;;;;;;;11.73;4.00;;;;;;;;;;5059553;28;20056;-58
2023/08/01 05:00:24;;;;;;;17.35;3.13;;;;;;;;;;5060016;28;20044;-57
2023/08/01 05:02:51;;;;;;;9.77;2.95;;;;;;;;;;5055079;28;20051;-58
2023/08/01 05:05:17;;;;;;;13.73;3.92;;;;;;;;;;5054478;28;20056;-58
2023/08/01 05:07:43;;;;;;;13.77;3.40;;;;;;;;;;5060964;28;20045;-57
2023/08/01 05:10:10;;;;;;;9.95;2.72;;;;;;;;;;5068194;28;20048;-58
2023/08/01 05:12:36;;;;;;;10.88;3.63;;;;;;;;;;5068057;28;20478;-58
2023/08/01 05:15:03;;;;;;;7.93;2.83;;;;;;;;;;5064732;28;20048;-58
2023/08/01 05:17:29;;;;;;;10.88;2.88;;;;;;;;;;5072186;28;20485;-59
2023/08/01 05:19:55;;;;;;;14.07;3.15;;;;;;;;;;5071196;28;20538;-59
2023/08/01 05:22:22;;;;;;;14.35;4.25;;;;;;;;;;5073306;28;20409;-59
2023/08/01 05:24:48;;;;;;;16.02;3.65;;;;;;;;;;5064847;28;20090;-59
2023/08/01 05:27:14;;;;;;;12.48;3.83;;;;;;;;;;5073174;28;20040;-59
2023/08/01 05:29:40;;;;;;;15.40;3.47;;;;;;;;;;5073306;28;20044;-59
2023/08/01 05:32:07;;;;;;;10.70;2.95;;;;;;;;;;5064276;28;20102;-59
2023/08/01 05:34:33;;;;;;;14.68;3.00;;;;;;;;;;5065551;28;20041;-59
2023/08/01 05:36:59;;;;;;;11.15;2.35;;;;;;;;;;5070945;28;20055;-59
2023/08/01 05:39:25;;;;;;;21.60;2.75;;;;;;;;;;5069051;28;20055;-58
2023/08/01 05:41:52;;;;;;;14.05;2.80;;;;;;;;;;5071028;28;20071;-59
2023/08/01 05:44:18;;;;;;;15.77;2.05;;;;;;;;;;5069847;28;20048;-59
2023/08/01 05:46:44;;;;;;;13.23;2.28;;;;;;;;;;5073796;28;20101;-59
2023/08/01 05:49:10;;;;;;;19.33;2.33;;;;;;;;;;5081349;28;20056;-59
2023/08/01 05:51:36;;;;;;;6.93;1.60;;;;;;;;;;5067123;28;20102;-58
2023/08/01 05:54:03;;;;;;;9.88;1.88;;;;;;;;;;5058904;28;20053;-58
2023/08/01 05:56:29;;;;;;;9.18;1.40;;;;;;;;;;5080622;28;20063;-58
2023/08/01 05:58:55;;;;;;;8.32;1.60;;;;;;;;;;5065800;28;20089;-58
2023/08/01 06:01:22;;;;;;;8.95;1.98;;;;;;;;;;5062058;28;20775;-58
2023/08/01 06:03:48;;;;;;;7.55;1.90;;;;;;;;;;5073082;28;20124;-58
2023/08/01 06:06:14;;;;;;;8.57;2.83;;;;;;;;;;5072490;28;20480;-58
2023/08/01 06:08:41;;;;;;;6.03;1.65;;;;;;;;;;5072425;28;20115;-58
2023/08/01 06:11:07;;;;;;;12.60;1.98;;;;;;;;;;5074213;28;20039;-58
2023/08/01 06:13:33;;;;;;;7.93;1.60;;;;;;;;;;5070997;28;20510;-58
2023/08/01 06:15:59;;;;;;;10.35;1.50;;;;;;;;;;5074064;28;20508;-59
2023/08/01 06:18:26;;;;;;;8.82;1.80;;;;;;;;;;5068413;28;20119;-59
2023/08/01 06:20:52;;;;;;;11.70;1.80;;;;;;;;;;5064630;28;20044;-59
2023/08/01 06:23:18;;;;;;;11.25;1.63;;;;;;;;;;5071318;28;20085;-59
2023/08/01 06:25:44;;;;;;;7.97;1.60;;;;;;;;;;5070559;28;20165;-59
2023/08/01 06:28:10;;;;;;;7.80;1.70;;;;;;;;;;5064440;28;20569;-59
2023/08/01 06:30:37;;;;;;;11.85;1.70;;;;;;;;;;5069468;28;20040;-59
2023/08/01 06:33:03;;;;;;;9.25;1.50;;;;;;;;;;5071796;28;20044;-59
2023/08/01 06:35:29;;;;;;;12.20;1.40;;;;;;;;;;5072927;28;20460;-59
2023/08/01 06:37:56;;;;;;;9.75;1.52;;;;;;;;;;5071819;28;20036;-59
2023/08/01 06:40:22;;;;;;;11.88;1.50;;;;;;;;;;5070641;28;20050;-59
2023/08/01 06:42:48;;;;;;;14.32;1.58;;;;;;;;;;5072599;28;20047;-59
2023/08/01 06:45:14;;;;;;;10.60;1.95;;;;;;;;;;5073196;28;20040;-59
2023/08/01 06:47:41;;;;;;;9.88;1.80;;;;;;;;;;5069829;28;20057;-59
2023/08/01 06:50:07;;;;;;;9.98;2.08;;;;;;;;;;5072501;28;20040;-59
2023/08/01 06:52:33;;;;;;;10.70;1.70;;;;;;;;;;5072553;28;20337;-59
2023/08/01 06:54:59;;;;;;;19.77;2.17;;;;;;;;;;5072091;28;20036;-59
2023/08/01 06:57:26;;;;;;;19.65;2.22;;;;;;;;;;5066553;28;20392;-59
2023/08/01 06:59:52;;;;;;;13.20;1.98;;;;;;;;;;5057687;28;20067;-59
2023/08/01 07:02:18;;;;;;;17.00;2.15;;;;;;;;;;5072228;28;20044;-59
2023/08/01 07:04:44;;;;;;;10.60;1.80;;;;;;;;;;5071991;28;20040;-60
2023/08/01 07:07:10;;;;;;;12.68;2.10;;;;;;;;;;5063689;28;20507;-59
2023/08/01 07:09:37;;;;;;;5.88;2.00;;;;;;;;;;5065943;28;20048;-59
2023/08/01 07:12:06;;;;;;;9.38;2.42;;;;;;;;;;5070720;28;20048;-59
2023/08/01 07:14:32;;;;;;;11.38;2.90;;;;;;;;;;5070333;28;20040;-59
2023/08/01 07:16:58;;;;;;;15.55;2.13;;;;;;;;;;5069996;28;20499;-59
2023/08/01 07:19:25;;;;;;;12.10;2.17;;;;;;;;;;5067040;28;20098;-59
2023/08/01 07:21:51;;;;;;;12.50;2.40;;;;;;;;;;5067276;28;20112;-59
2023/08/01 07:24:17;;;;;;;11.77;2.47;;;;;;;;;;5068849;28;20040;-59
2023/08/01 07:26:43;;;;;;;11.70;2.20;;;;;;;;;;5059660;28;20071;-59
2023/08/01 07:29:11;;;;;;;15.18;3.25;;;;;;;;;;5064531;28;20071;-59
2023/08/01 07:31:37;;;;;;;14.68;2.83;;;;;;;;;;5067463;28;20071;-59
2023/08/01 07:34:04;;;;;;;14.27;2.30;;;;;;;;;;5067060;28;20043;-59
2023/08/01 07:36:30;;;;;;;10.00;2.30;;;;;;;;;;5062040;28;20028;-59
2023/08/01 07:38:56;;;;;;;24.73;2.97;;;;;;;;;;5061712;28;20484;-58
2023/08/01 07:41:22;;;;;;;13.52;2.92;;;;;;;;;;5066483;28;20035;-59
2023/08/01 07:43:48;;;;;;;11.68;2.05;;;;;;;;;;5069504;28;20045;-59
2023/08/01 07:46:15;;;;;;;11.48;2.13;;;;;;;;;;5068021;28;20132;-59
2023/08/01 07:48:41;;;;;;;9.05;1.90;;;;;;;;;;5054723;28;20040;-59
2023/08/01 07:51:07;;;;;;;4.63;1.90;;;;;;;;;;5061397;28;20085;-59
2023/08/01 07:53:34;;;;;;;11.23;1.83;;;;;;;;;;5067946;28;20048;-59
2023/08/01 07:56:02;;;;;;;10.02;2.60;;;;;;;;;;5068610;28;20043;-59
2023/08/01 07:58:28;;;;;;;13.07;2.30;;;;;;;;;;5059638;28;20096;-59
2023/08/01 08:00:54;;;;;;;10.50;2.38;;;;;;;;;;5071102;28;20044;-59
2023/08/01 08:03:24;;;;;;;14.00;2.72;;;;;;;;;;5069422;28;20341;-59
2023/08/01 08:05:50;;;;;;;14.52;2.08;;;;;;;;;;5069697;28;20078;-59
2023/08/01 08:08:25;;;;;;;13.00;2.10;;;;;;;;;;5069606;28;20495;-59
2023/08/01 08:10:51;;;;;;;11.93;1.88;;;;;;;;;;5069180;28;20048;-59
2023/08/01 08:13:17;;;;;;;11.57;2.60;;;;;;;;;;5069443;28;20063;-59
2023/08/01 08:15:44;;;;;;;15.35;2.20;;;;;;;;;;5068427;28;20053;-59
2023/08/01 08:18:10;;;;;;;14.50;2.25;;;;;;;;;;5065660;28;20040;-59
2023/08/01 08:20:42;;;;;;;14.48;3.45;;;;;;;;;;5057023;28;20040;-59
2023/08/01 08:23:08;;;;;;;15.85;3.38;;;;;;;;;;5066918;28;20045;-59
2023/08/01 08:25:35;;;;;;;11.93;2.40;;;;;;;;;;5065092;28;20043;-59
2023/08/01 08:28:01;;;;;;;13.70;2.72;;;;;;;;;;5067547;28;20087;-59
2023/08/01 08:30:27;;;;;;;13.88;2.28;;;;;;;;;;5068391;28;20054;-59
2023/08/01 08:32:53;;;;;;;8.32;2.67;;;;;;;;;;5069283;28;20572;-59
2023/08/01 08:35:19;;;;;;;12.02;2.45;;;;;;;;;;5068160;28;20048;-59
2023/08/01 08:37:46;;;;;;;10.98;2.28;;;;;;;;;;5069332;28;20433;-59
2023/08/01 08:40:13;;;;;;;9.63;2.20;;;;;;;;;;5059946;28;20087;-59
2023/08/01 08:42:40;;;;;;;13.85;1.85;;;;;;;;;;5067395;28;20136;-59
2023/08/01 08:45:07;;;;;;;4.72;1.40;;;;;;;;;;5063569;28;20082;-60
2023/08/01 08:47:36;;;;;;;8.15;1.70;;;;;;;;;;5062528;28;20062;-59
2023/08/01 08:50:03;;;;;;;6.57;2.13;;;;;;;;;;5069085;28;20044;-59
2023/08/01 08:52:29;;;;;;;7.88;1.60;;;;;;;;;;5069514;28;20052;-59
2023/08/01 08:54:56;;;;;;;7.18;1.95;;;;;;;;;;5064703;28;20116;-59
2023/08/01 08:57:23;;;;;;;11.30;2.25;;;;;;;;;;5070628;28;20045;-59
2023/08/01 08:59:50;;;;;;;10.23;2.55;;;;;;;;;;5068797;28;20033;-59
2023/08/01 09:02:17;;;;;;;11.35;2.63;;;;;;;;;;5065281;28;20044;-59
2023/08/01 09:04:43;;;;;;;9.18;2.22;;;;;;;;;;5067775;28;20083;-59
2023/08/01 09:07:12;;;;;;;12.65;2.92;;;;;;;;;;5059114;28;20041;-59
2023/08/01 09:09:39;;;;;;;11.98;2.80;;;;;;;;;;5061079;28;20040;-59
2023/08/01 09:12:06;;;;;;;10.50;2.45;;;;;;;;;;5065052;28;20527;-59
2023/08/01 09:14:32;;;;;;;6.78;1.85;;;;;;;;;;5063669;28;20445;-59
2023/08/01 09:17:06;;;;;;;7.93;2.08;;;;;;;;;;5065652;28;20041;-59
2023/08/01 09:19:33;;;;;;;6.88;1.80;;;;;;;;;;5066392;28;20041;-59
2023/08/01 09:21:59;;;;;;;8.35;1.77;;;;;;;;;;5060270;28;20045;-59
2023/08/01 09:24:25;;;;;;;7.88;1.65;;;;;;;;;;5070275;28;20040;-59
2023/08/01 09:26:51;;;;;;;10.32;1.65;;;;;;;;;;5061398;28;20365;-59
2023/08/01 09:29:18;;;;;;;8.98;1.85;;;;;;;;;;5067600;28;20032;-59
2023/08/01 09:31:44;;;;;;;10.90;2.13;;;;;;;;;;5068958;28;20078;-59
2023/08/01 09:34:31;;;;;;;10.88;2.33;;;;;;;;;;5067411;28;20125;-59
2023/08/01 09:37:00;;;;;;;10.52;2.15;;;;;;;;;;5064650;28;20230;-59
2023/08/01 09:39:27;;;;;;;5.85;1.60;;;;;;;;;;5067840;28;20456;-59
2023/08/01 09:42:00;;;;;;;9.05;2.35;;;;;;;;;;5059475;28;20044;-59
2023/08/01 09:44:29;;;;;;;13.00;2.65;;;;;;;;;;5066980;28;20044;-59
2023/08/01 09:47:00;;;;;;;6.88;1.77;;;;;;;;;;5059828;28;20057;-59
2023/08/01 09:49:27;;;;;;;8.52;1.75;;;;;;;;;;5064553;28;20399;-59
2023/08/01 09:51:54;;;;;;;8.02;1.70;;;;;;;;;;5068487;28;20106;-59
2023/08/01 09:54:21;;;;;;;5.78;1.02;;;;;;;;;;5067089;28;20056;-60
2023/08/01 09:56:49;;;;;;;6.47;1.75;;;;;;;;;;5053015;28;20070;-59
2023/08/01 09:59:25;;;;;;;7.63;1.60;;;;;;;;;;5056023;28;20396;-59
2023/08/01 10:01:54;;;;;;;10.20;1.70;;;;;;;;;;5059947;28;20047;-59
2023/08/01 10:04:31;;;;;;;6.68;1.83;;;;;;;;;;5070104;28;20062;-60
2023/08/01 10:07:02;;;;;;;10.02;1.70;;;;;;;;;;5062720;28;20127;-59
2023/08/01 10:09:31;;;;;;;9.35;1.50;;;;;;;;;;5067695;28;20043;-60
2023/08/01 10:11:58;;;;;;;5.28;1.40;;;;;;;;;;5069552;28;20048;-60
2023/08/01 10:14:25;;;;;;;8.40;2.03;;;;;;;;;;5070624;28;20033;-59
2023/08/01 10:16:52;;;;;;;6.22;1.70;;;;;;;;;;5068549;28;20120;-59
2023/08/01 10:19:19;;;;;;;6.07;1.40;;;;;;;;;;5065427;28;20045;-60
2023/08/01 10:21:47;;;;;;;7.55;1.60;;;;;;;;;;5073342;28;20123;-60
2023/08/01 10:24:14;;;;;;;8.02;2.03;;;;;;;;;;5071904;28;20055;-59
2023/08/01 10:26:40;;;;;;;8.77;1.88;;;;;;;;;;5072416;28;20051;-60
2023/08/01 10:29:06;;;;;;;6.63;1.40;;;;;;;;;;5073028;28;20113;-59
2023/08/01 10:31:33;;;;;;;7.35;1.30;;;;;;;;;;5068056;28;20044;-60
2023/08/01 10:34:06;;;;;;;6.63;1.80;;;;;;;;;;5072999;28;20037;-59
2023/08/01 10:36:32;;;;;;;7.22;1.58;;;;;;;;;;5073161;28;20047;-60
2023/08/01 10:38:59;;;;;;;8.05;1.77;;;;;;;;;;5072033;28;20097;-59
2023/08/01 10:41:27;;;;;;;9.73;1.88;;;;;;;;;;5072592;28;20040;-60
2023/08/01 10:44:10;;;;;;;8.98;2.10;;;;;;;;;;5064457;28;20048;-60
2023/08/01 10:46:49;;;;;;;5.47;1.58;;;;;;;;;;5070691;28;20068;-59
2023/08/01 10:49:16;;;;;;;5.93;1.20;;;;;;;;;;5063224;28;20098;-60
2023/08/01 10:51:42;;;;;;;4.95;1.15;;;;;;;;;;5071276;28;20098;-59
2023/08/01 10:54:21;;;;;;;8.32;1.73;;;;;;;;;;5069317;28;20052;-60
2023/08/01 10:56:47;;;;;;;9.32;1.73;;;;;;;;;;5059742;28;20045;-60
2023/08/01 10:59:17;;;;;;;7.93;1.60;;;;;;;;;;5072245;28;20480;-60
2023/08/01 11:01:48;;;;;;;10.93;1.90;;;;;;;;;;5070549;28;20115;-59
2023/08/01 11:04:18;;;;;;;8.05;1.50;;;;;;;;;;5069304;28;20099;-59
2023/08/01 11:06:46;;;;;;;8.85;1.73;;;;;;;;;;5071369;28;20070;-59
2023/08/01 11:09:22;;;;;;;6.07;1.90;;;;;;;;;;5072299;28;20041;-59
2023/08/01 11:11:50;;;;;;;6.75;1.50;;;;;;;;;;5070839;28;20044;-59
2023/08/01 11:14:16;;;;;;;11.65;2.03;;;;;;;;;;5071565;28;20048;-60
2023/08/01 11:16:44;;;;;;;9.40;1.50;;;;;;;;;;5072067;28;20060;-60
2023/08/01 11:19:20;;;;;;;6.40;1.20;;;;;;;;;;5066434;28;20131;-60
2023/08/01 11:21:46;;;;;;;7.57;1.48;;;;;;;;;;5063073;28;20044;-59
2023/08/01 11:24:13;;;;;;;6.50;1.33;;;;;;;;;;5057609;28;20519;-59
2023/08/01 11:26:42;;;;;;;8.18;1.60;;;;;;;;;;5071793;28;20044;-60
2023/08/01 11:29:09;;;;;;;6.45;1.40;;;;;;;;;;5071003;28;20040;-60
2023/08/01 11:31:35;;;;;;;6.53;1.50;;;;;;;;;;5069512;28;20041;-59
2023/08/01 11:34:02;;;;;;;7.22;1.65;;;;;;;;;;5061983;28;20036;-60
2023/08/01 11:36:29;;;;;;;13.75;3.22;;;;;;;;;;5068302;28;20119;-59
2023/08/01 11:38:59;;;;;;;7.55;2.30;;;;;;;;;;5065654;28;20044;-60
2023/08/01 11:41:27;;;;;;;15.77;1.55;;;;;;;;;;5060469;28;20055;-59
2023/08/01 11:43:56;;;;;;;7.32;1.70;;;;;;;;;;5065629;28;20036;-60
2023/08/01 11:46:23;;;;;;;9.02;1.80;;;;;;;;;;5071194;28;20063;-60
2023/08/01 11:48:50;;;;;;;10.68;2.13;;;;;;;;;;5070931;28;20076;-60
2023/08/01 11:51:17;;;;;;;8.35;1.67;;;;;;;;;;5067032;28;20101;-59
2023/08/01 11:53:43;;;;;;;8.80;2.53;;;;;;;;;;5061096;28;20110;-60
2023/08/01 11:56:09;;;;;;;7.78;1.80;;;;;;;;;;5062120;28;20128;-60
2023/08/01 11:58:37;;;;;;;8.35;1.73;;;;;;;;;;5066920;28;20049;-60
2023/08/01 12:01:07;;;;;;;10.32;2.17;;;;;;;;;;5070736;28;20049;-59
2023/08/01 12:03:42;;;;;;;10.23;1.85;;;;;;;;;;5070042;28;20072;-60
2023/08/01 12:06:09;;;;;;;7.00;1.70;;;;;;;;;;5071151;28;20166;-60
2023/08/01 12:08:35;;;;;;;10.20;1.98;;;;;;;;;;5066265;28;20037;-60
2023/08/01 12:11:02;;;;;;;7.53;1.88;;;;;;;;;;5062430;28;20036;-60
2023/08/01 12:13:28;;;;;;;8.30;1.88;;;;;;;;;;5070661;28;20111;-60
2023/08/01 12:15:59;;;;;;;8.32;2.15;;;;;;;;;;5071287;28;20041;-60
2023/08/01 12:18:29;;;;;;;11.05;1.75;;;;;;;;;;5066887;28;20143;-60
2023/08/01 12:20:56;;;;;;;9.07;1.88;;;;;;;;;;5056448;28;20051;-60
2023/08/01 12:23:22;;;;;;;7.45;1.65;;;;;;;;;;5070770;28;20408;-60
2023/08/01 12:25:49;;;;;;;6.28;1.30;;;;;;;;;;5069685;28;20117;-60
2023/08/01 12:28:15;;;;;;;8.75;1.20;;;;;;;;;;5069524;28;20099;-60
2023/08/01 12:30:42;;;;;;;10.02;1.90;;;;;;;;;;5070537;28;20040;-60
2023/08/01 12:33:09;;;;;;;6.63;1.50;;;;;;;;;;5066169;28;20055;-60
2023/08/01 12:35:39;;;;;;;6.43;1.40;;;;;;;;;;5067058;28;20055;-60
2023/08/01 12:38:05;;;;;;;4.05;1.25;;;;;;;;;;5063928;28;20106;-60
2023/08/01 12:40:31;;;;;;;6.45;1.30;;;;;;;;;;5053585;28;20517;-60
2023/08/01 12:42:57;;;;;;;7.63;1.75;;;;;;;;;;5065704;28;20113;-59
2023/08/01 12:45:24;;;;;;;6.32;1.30;;;;;;;;;;5062478;28;20036;-60
2023/08/01 12:47:50;;;;;;;6.68;1.50;;;;;;;;;;5063081;28;20459;-60
2023/08/01 12:50:16;;;;;;;7.93;1.92;;;;;;;;;;5070687;28;20508;-60
2023/08/01 12:52:42;;;;;;;8.10;1.80;;;;;;;;;;5069321;28;20052;-60
2023/08/01 12:55:09;;;;;;;9.20;2.28;;;;;;;;;;5070499;28;20037;-60
2023/08/01 12:57:35;;;;;;;5.50;1.52;;;;;;;;;;5059455;28;20977;-60
2023/08/01 13:00:01;;;;;;;9.48;1.80;;;;;;;;;;5068218;28;20071;-60
2023/08/01 13:02:27;;;;;;;6.93;1.40;;;;;;;;;;5069206;28;20096;-60
2023/08/01 13:04:54;;;;;;;7.70;1.45;;;;;;;;;;5070331;28;20036;-60
2023/08/01 13:07:20;;;;;;;6.05;1.40;;;;;;;;;;5053370;28;20040;-60
2023/08/01 13:09:46;;;;;;;6.68;1.65;;;;;;;;;;5067229;28;20179;-60
2023/08/01 13:12:12;;;;;;;7.53;1.52;;;;;;;;;;5065861;28;20064;-60
2023/08/01 13:14:38;;;;;;;6.95;1.02;;;;;;;;;;5063003;28;20047;-60
2023/08/01 13:17:05;;;;;;;5.07;1.25;;;;;;;;;;5073475;28;20048;-59
2023/08/01 13:19:31;;;;;;;3.58;1.00;;;;;;;;;;5065939;28;20364;-59
2023/08/01 13:21:57;;;;;;;8.05;1.40;;;;;;;;;;5066556;28;20092;-59
2023/08/01 13:24:23;;;;;;;8.45;1.55;;;;;;;;;;5072551;28;20465;-59
2023/08/01 13:26:49;;;;;;;4.28;0.90;;;;;;;;;;5068612;28;20037;-60
2023/08/01 13:29:16;;;;;;;5.70;1.10;;;;;;;;;;5070043;28;20488;-59
2023/08/01 13:31:42;;;;;;;6.03;1.50;;;;;;;;;;5071462;28;20046;-60
2023/08/01 13:34:08;;;;;;;4.47;1.00;;;;;;;;;;5070523;28;20049;-59
2023/08/01 13:36:34;;;;;;;6.28;1.38;;;;;;;;;;5072021;28;20036;-60
2023/08/01 13:39:01;;;;;;;6.63;1.70;;;;;;;;;;5068861;28;20121;-60
2023/08/01 13:41:27;;;;;;;5.43;1.40;;;;;;;;;;5070582;28;20048;-60
2023/08/01 13:43:53;;;;;;;6.07;1.23;;;;;;;;;;5074351;28;20486;-60
2023/08/01 13:46:19;;;;;;;6.30;1.20;;;;;;;;;;5073791;28;20088;-60
2023/08/01 13:48:46;;;;;;;5.68;1.20;;;;;;;;;;5071586;28;20063;-60
2023/08/01 13:51:13;;;;;;;6.28;1.40;;;;;;;;;;5073825;28;20044;-60
2023/08/01 13:53:43;;;;;;;12.27;1.30;;;;;;;;;;5074398;28;20058;-59
2023/08/01 13:56:10;;;;;;;7.97;1.50;;;;;;;;;;5070814;28;20048;-59
2023/08/01 13:58:36;;;;;;;6.00;1.02;;;;;;;;;;5073347;28;20112;-59
2023/08/01 14:01:07;;;;;;;6.50;1.55;;;;;;;;;;5071422;28;20075;-60
2023/08/01 14:03:37;;;;;;;7.32;1.42;;;;;;;;;;5070554;28;20072;-59
2023/08/01 14:06:14;;;;;;;6.53;1.80;;;;;;;;;;5073441;28;20127;-59
2023/08/01 14:08:41;;;;;;;7.18;0.93;;;;;;;;;;5052547;28;20089;-60
2023/08/01 14:11:09;;;;;;;3.63;0.90;;;;;;;;;;5073478;28;20048;-59
2023/08/01 14:13:35;;;;;;;3.90;0.70;;;;;;;;;;5068435;28;20032;-60
2023/08/01 14:16:03;;;;;;;3.95;0.75;;;;;;;;;;5069579;28;20040;-60
2023/08/01 14:18:29;;;;;;;3.17;0.68;;;;;;;;;;5073485;28;20560;-59
2023/08/01 14:20:55;;;;;;;3.88;0.73;;;;;;;;;;5075004;28;20047;-60
2023/08/01 14:23:22;;;;;;;12.52;1.20;;;;;;;;;;5070384;28;20390;-60
2023/08/01 14:25:48;;;;;;;4.72;1.17;;;;;;;;;;5073532;28;20048;-60
2023/08/01 14:28:15;;;;;;;4.75;0.90;;;;;;;;;;5073999;28;20088;-60
2023/08/01 14:30:41;;;;;;;6.00;2.03;;;;;;;;;;5071803;28;20441;-60
2023/08/01 14:33:08;;;;;;;5.60;1.23;;;;;;;;;;5071268;28;20207;-60